Time;durP1;ratioP1;P1;durP2;ratioP2;P2;SDS_P1;SDS_P2;PMS_P1;PMS_P2;Temp;Humidity;BMP_temperature;BMP_pressure;BME280_temperature;BME280_humidity;BME280_pressure;Samples;Min_cycle;Max_cycle;Signal;HPM_P1;HPM_P2
2023/07/08 00:00:14;;;;;;;12.15;5.60;;;16.50;99.90;;;;;;4967454;28;20053;-63
2023/07/08 00:02:41;;;;;;;8.70;5.13;;;16.50;99.90;;;;;;4985284;28;20456;-63
2023/07/08 00:05:16;;;;;;;12.30;5.80;;;16.40;99.90;;;;;;4982482;28;20074;-64
2023/07/08 00:07:43;;;;;;;14.10;5.63;;;16.40;99.90;;;;;;4983451;28;20081;-67
2023/07/08 00:10:19;;;;;;;11.75;4.93;;;16.40;99.90;;;;;;4965844;28;20050;-64
2023/07/08 00:12:47;;;;;;;10.70;5.47;;;16.30;99.90;;;;;;4985067;28;20145;-64
2023/07/08 00:15:13;;;;;;;11.13;4.90;;;16.30;99.90;;;;;;4966685;28;20092;-67
2023/07/08 00:17:39;;;;;;;11.63;4.93;;;16.30;99.90;;;;;;4951289;28;20074;-63
2023/07/08 00:20:13;;;;;;;9.30;5.22;;;16.30;99.90;;;;;;4966225;28;20507;-65
2023/07/08 00:22:40;;;;;;;15.85;5.53;;;16.30;99.90;;;;;;4967304;28;20065;-65
2023/07/08 00:25:07;;;;;;;12.80;5.68;;;16.30;99.90;;;;;;4965986;28;20042;-66
2023/07/08 00:27:33;;;;;;;11.93;5.05;;;16.20;99.90;;;;;;4984437;28;20046;-64
2023/07/08 00:30:00;;;;;;;8.25;4.85;;;16.20;99.90;;;;;;4967744;28;20116;-63
2023/07/08 00:32:26;;;;;;;10.63;5.47;;;16.20;99.90;;;;;;4968012;28;20041;-64
2023/07/08 00:34:51;;;;;;;13.07;5.28;;;16.20;99.90;;;;;;4966999;28;20550;-64
2023/07/08 00:37:17;;;;;;;8.90;5.85;;;16.10;99.90;;;;;;4969799;28;20046;-65
2023/07/08 00:39:42;;;;;;;10.82;5.22;;;16.10;99.90;;;;;;4999707;28;20279;-64
2023/07/08 00:42:17;;;;;;;11.63;5.78;;;16.10;99.90;;;;;;5006263;28;20054;-63
2023/07/08 00:44:44;;;;;;;15.02;5.93;;;16.10;99.90;;;;;;4990404;28;20485;-62
2023/07/08 00:47:13;;;;;;;13.25;5.78;;;16.00;99.90;;;;;;4972797;28;20049;-64
2023/07/08 00:49:48;;;;;;;14.25;6.00;;;16.00;99.90;;;;;;4990066;28;20198;-65
2023/07/08 00:52:19;;;;;;;;;;;16.00;99.90;;;;;;5007777;28;20133;-64
2023/07/08 00:54:46;;;;;;;11.98;5.07;;;16.00;99.90;;;;;;4989835;28;19917;-64
2023/07/08 00:57:11;;;;;;;12.98;5.80;;;15.90;99.90;;;;;;4988572;28;20045;-65
2023/07/08 01:00:05;;;;;;;12.38;6.00;;;15.90;99.90;;;;;;4989525;28;20042;-63
2023/07/08 01:02:35;;;;;;;11.52;5.68;;;15.90;99.90;;;;;;4988468;28;20054;-64
2023/07/08 01:05:15;;;;;;;12.77;6.07;;;15.90;99.90;;;;;;4972365;28;20302;-65
2023/07/08 01:07:44;;;;;;;12.73;6.15;;;15.90;99.90;;;;;;4989281;28;20067;-65
2023/07/08 01:10:16;;;;;;;14.88;5.85;;;15.80;99.90;;;;;;4988201;28;20084;-65
2023/07/08 01:12:45;;;;;;;9.98;5.82;;;15.80;99.90;;;;;;4990091;28;20072;-63
2023/07/08 01:15:12;;;;;;;11.35;5.80;;;15.80;99.90;;;;;;4986590;28;20493;-65
2023/07/08 01:17:39;;;;;;;11.68;5.30;;;15.80;99.90;;;;;;5006614;28;20073;-63
2023/07/08 01:20:06;;;;;;;15.50;5.82;;;15.80;99.90;;;;;;5005760;28;20056;-65
2023/07/08 01:22:36;;;;;;;12.88;5.47;;;15.70;99.90;;;;;;5007282;28;20045;-64
2023/07/08 01:25:03;;;;;;;10.43;5.45;;;15.70;99.90;;;;;;4989279;28;20057;-64
2023/07/08 01:27:32;;;;;;;13.55;6.18;;;15.70;99.90;;;;;;4988339;28;20049;-65
2023/07/08 01:29:59;;;;;;;9.50;5.75;;;15.70;99.90;;;;;;5006037;28;20037;-65
2023/07/08 01:32:25;;;;;;;14.25;5.75;;;15.70;99.90;;;;;;4988626;28;20050;-65
2023/07/08 01:35:00;;;;;;;12.45;5.93;;;15.70;99.90;;;;;;5004365;28;20042;-65
2023/07/08 01:37:51;;;;;;;11.15;5.50;;;15.70;99.90;;;;;;4987697;28;20401;-67
2023/07/08 01:40:29;;;;;;;9.40;5.95;;;15.60;99.90;;;;;;4984694;28;20584;-64
2023/07/08 01:42:56;;;;;;;10.00;5.75;;;15.60;99.90;;;;;;4985178;28;20335;-66
2023/07/08 01:45:25;;;;;;;10.38;5.63;;;15.60;99.90;;;;;;4989920;28;20119;-65
2023/07/08 01:47:59;;;;;;;11.25;6.10;;;15.60;99.90;;;;;;4987086;28;20037;-64
2023/07/08 01:50:26;;;;;;;17.85;6.32;;;15.60;99.90;;;;;;4988571;28;20563;-64
2023/07/08 01:52:53;;;;;;;13.18;5.97;;;15.60;99.90;;;;;;4972820;28;20118;-63
2023/07/08 01:55:23;;;;;;;12.38;5.90;;;15.50;99.90;;;;;;4987950;28;20093;-66
2023/07/08 01:57:52;;;;;;;10.43;6.07;;;15.50;99.90;;;;;;4988424;28;20974;-64
2023/07/08 02:00:18;;;;;;;15.93;6.20;;;15.50;99.90;;;;;;4972085;28;20460;-64
2023/07/08 02:02:44;;;;;;;13.38;6.40;;;15.50;99.90;;;;;;4987842;28;20476;-65
2023/07/08 02:05:09;;;;;;;10.50;6.38;;;15.50;99.90;;;;;;4987711;28;20049;-63
2023/07/08 02:07:35;;;;;;;12.00;6.13;;;15.50;99.90;;;;;;4988484;28;20061;-63
2023/07/08 02:10:01;;;;;;;10.88;6.40;;;15.50;99.90;;;;;;4986635;28;20185;-65
2023/07/08 02:12:26;;;;;;;12.45;6.13;;;15.50;99.90;;;;;;5004240;28;20409;-65
2023/07/08 02:14:52;;;;;;;11.30;6.22;;;15.40;99.90;;;;;;5006157;28;20037;-63
2023/07/08 02:17:18;;;;;;;13.57;6.68;;;15.40;99.90;;;;;;4987530;28;20050;-64
2023/07/08 02:19:44;;;;;;;13.95;6.72;;;15.40;99.90;;;;;;5004920;28;20124;-65
2023/07/08 02:22:10;;;;;;;16.35;6.63;;;15.40;99.90;;;;;;4988046;28;20126;-62
2023/07/08 02:24:36;;;;;;;13.40;6.35;;;15.30;99.90;;;;;;4989771;28;20037;-64
2023/07/08 02:27:01;;;;;;;13.10;6.40;;;15.30;99.90;;;;;;5003116;28;20374;-64
2023/07/08 02:29:27;;;;;;;11.30;6.70;;;15.30;99.90;;;;;;4971545;28;20057;-64
2023/07/08 02:31:53;;;;;;;13.68;7.15;;;15.30;99.90;;;;;;5005335;28;20049;-64
2023/07/08 02:34:19;;;;;;;10.88;6.45;;;15.20;99.90;;;;;;4986706;28;20030;-65
2023/07/08 02:36:44;;;;;;;12.05;6.53;;;15.10;99.90;;;;;;4984258;28;20046;-62
2023/07/08 02:39:10;;;;;;;12.00;6.55;;;15.10;99.90;;;;;;4951758;28;20066;-64
2023/07/08 02:41:36;;;;;;;11.25;6.18;;;15.00;99.90;;;;;;4972020;28;20897;-64
2023/07/08 02:44:02;;;;;;;13.70;7.20;;;15.00;99.90;;;;;;5005144;28;20038;-63
2023/07/08 02:46:28;;;;;;;16.98;7.30;;;14.90;99.90;;;;;;4984940;28;20503;-62
2023/07/08 02:48:54;;;;;;;13.32;7.47;;;14.90;99.90;;;;;;5004858;28;20072;-63
2023/07/08 02:51:20;;;;;;;13.18;7.28;;;14.90;99.90;;;;;;4985677;28;20141;-63
2023/07/08 02:53:46;;;;;;;11.82;7.40;;;14.80;99.90;;;;;;4986251;28;20045;-63
2023/07/08 02:56:12;;;;;;;11.95;6.70;;;14.80;99.90;;;;;;4986843;28;20145;-64
2023/07/08 02:58:37;;;;;;;14.18;7.63;;;14.80;99.90;;;;;;4987454;28;20065;-67
2023/07/08 03:01:03;;;;;;;13.27;7.25;;;14.80;99.90;;;;;;4988623;28;20046;-64
2023/07/08 03:03:29;;;;;;;12.07;7.20;;;14.80;99.90;;;;;;5003082;28;20046;-64
2023/07/08 03:06:00;;;;;;;13.80;7.50;;;14.80;99.90;;;;;;4985944;28;20561;-64
2023/07/08 03:08:27;;;;;;;15.80;7.28;;;14.80;99.90;;;;;;4987092;28;20041;-64
2023/07/08 03:11:01;;;;;;;13.57;7.78;;;14.70;99.90;;;;;;4999625;28;20038;-63
2023/07/08 03:13:28;;;;;;;14.32;7.75;;;14.70;99.90;;;;;;4998737;28;20133;-65
2023/07/08 03:15:57;;;;;;;14.48;7.63;;;14.70;99.90;;;;;;4987300;28;20092;-67
2023/07/08 03:18:24;;;;;;;11.98;8.00;;;14.70;99.90;;;;;;4986372;28;20056;-65
2023/07/08 03:20:50;;;;;;;14.50;7.70;;;14.70;99.90;;;;;;4977562;28;20124;-65
2023/07/08 03:23:16;;;;;;;17.50;7.53;;;14.70;99.90;;;;;;4967396;28;20038;-65
2023/07/08 03:25:42;;;;;;;15.07;7.93;;;14.70;99.90;;;;;;4984906;28;20052;-63
2023/07/08 03:28:14;;;;;;;13.02;7.82;;;14.70;99.90;;;;;;4986547;28;20431;-65
2023/07/08 03:30:41;;;;;;;13.55;7.72;;;14.70;99.90;;;;;;4986999;28;20049;-66
2023/07/08 03:33:09;;;;;;;13.23;7.85;;;14.70;99.90;;;;;;4971248;28;20374;-63
2023/07/08 03:35:35;;;;;;;15.15;8.13;;;14.70;99.90;;;;;;4970736;28;20543;-64
2023/07/08 03:38:02;;;;;;;14.73;7.68;;;14.70;99.90;;;;;;4986674;28;20057;-65
2023/07/08 03:40:28;;;;;;;14.10;7.88;;;14.70;99.90;;;;;;4970244;28;20064;-63
2023/07/08 03:42:54;;;;;;;15.57;8.13;;;14.70;99.90;;;;;;4986475;28;20078;-63
2023/07/08 03:45:20;;;;;;;15.50;8.25;;;14.80;99.90;;;;;;5004386;28;20427;-65
2023/07/08 03:47:46;;;;;;;18.13;9.48;;;14.80;99.90;;;;;;5002907;28;20037;-66
2023/07/08 03:50:24;;;;;;;11.45;7.85;;;14.80;99.90;;;;;;4985817;28;20420;-65
2023/07/08 03:52:51;;;;;;;16.25;8.30;;;14.90;99.90;;;;;;4986608;28;20077;-64
2023/07/08 03:55:17;;;;;;;13.73;8.50;;;14.90;99.90;;;;;;4986570;28;20049;-65
2023/07/08 03:57:43;;;;;;;16.20;8.27;;;14.90;99.90;;;;;;5003411;28;20096;-66
2023/07/08 04:00:09;;;;;;;15.20;8.93;;;14.90;99.90;;;;;;4986178;28;20332;-64
2023/07/08 04:02:36;;;;;;;14.68;7.80;;;15.00;99.90;;;;;;4986971;28;20049;-65
2023/07/08 04:05:03;;;;;;;12.27;8.57;;;15.00;99.90;;;;;;4987377;28;20050;-64
2023/07/08 04:07:29;;;;;;;11.25;7.82;;;15.10;99.90;;;;;;4990424;28;20081;-66
2023/07/08 04:09:54;;;;;;;12.05;7.78;;;15.10;99.90;;;;;;5008656;28;20083;-65
2023/07/08 04:12:20;;;;;;;12.60;7.60;;;15.20;99.90;;;;;;4974620;28;20042;-64
2023/07/08 04:14:46;;;;;;;13.82;7.95;;;15.30;99.90;;;;;;4975218;28;20529;-66
2023/07/08 04:17:13;;;;;;;15.10;8.15;;;15.40;99.90;;;;;;4989552;28;20077;-64
2023/07/08 04:19:39;;;;;;;13.80;7.47;;;15.50;99.90;;;;;;5006998;28;20042;-65
2023/07/08 04:22:06;;;;;;;14.20;7.95;;;15.70;99.90;;;;;;5006914;28;20056;-64
2023/07/08 04:24:32;;;;;;;12.13;7.60;;;15.70;99.90;;;;;;4990890;28;20035;-65
2023/07/08 04:26:58;;;;;;;13.13;7.57;;;15.80;99.90;;;;;;4989488;28;20084;-66
2023/07/08 04:29:26;;;;;;;12.68;7.25;;;15.90;99.90;;;;;;4990516;28;20540;-65
2023/07/08 04:31:52;;;;;;;15.15;7.93;;;16.00;99.90;;;;;;5006296;28;20068;-64
2023/07/08 04:34:18;;;;;;;19.10;8.05;;;16.10;99.90;;;;;;4987791;28;20038;-64
2023/07/08 04:36:44;;;;;;;16.95;7.68;;;16.20;99.90;;;;;;5006756;28;20049;-65
2023/07/08 04:39:10;;;;;;;16.02;8.30;;;16.30;99.90;;;;;;4989622;28;20062;-67
2023/07/08 04:41:43;;;;;;;25.48;9.85;;;16.30;99.90;;;;;;4983745;28;20038;-65
2023/07/08 04:44:12;;;;;;;12.95;7.68;;;16.40;99.90;;;;;;5002420;28;20150;-64
2023/07/08 04:46:50;;;;;;;15.63;8.32;;;16.40;99.90;;;;;;5007644;28;20037;-66
2023/07/08 04:49:17;;;;;;;13.30;7.68;;;16.50;99.90;;;;;;4989856;28;20038;-67
2023/07/08 04:51:43;;;;;;;13.50;7.32;;;16.60;99.90;;;;;;5006878;28;20045;-66
2023/07/08 04:54:10;;;;;;;14.75;8.02;;;16.70;99.90;;;;;;5007291;28;20049;-64
2023/07/08 04:56:45;;;;;;;13.63;7.72;;;16.80;99.90;;;;;;4989596;28;20052;-64
2023/07/08 04:59:16;;;;;;;14.00;7.57;;;16.90;99.90;;;;;;4977159;28;20165;-64
2023/07/08 05:01:42;;;;;;;13.82;7.13;;;17.00;99.90;;;;;;4988602;28;20137;-65
2023/07/08 05:04:12;;;;;;;13.25;6.95;;;17.10;99.90;;;;;;4970359;28;20126;-62
2023/07/08 05:06:38;;;;;;;16.23;7.13;;;17.30;99.90;;;;;;4965975;28;20489;-64
2023/07/08 05:09:04;;;;;;;15.43;6.97;;;17.30;99.90;;;;;;5006506;28;20088;-66
2023/07/08 05:11:30;;;;;;;15.32;6.80;;;17.30;99.90;;;;;;4989292;28;20677;-64
2023/07/08 05:13:56;;;;;;;12.20;7.35;;;17.40;99.90;;;;;;4989410;28;20045;-65
2023/07/08 05:16:22;;;;;;;13.30;6.63;;;17.40;99.90;;;;;;4988788;28;20405;-69
2023/07/08 05:18:48;;;;;;;11.45;6.70;;;17.60;99.90;;;;;;5005296;28;20108;-66
2023/07/08 05:21:14;;;;;;;11.15;6.80;;;17.80;99.90;;;;;;4988661;28;20390;-67
2023/07/08 05:23:40;;;;;;;12.15;6.60;;;18.00;99.90;;;;;;4989172;28;20137;-63
2023/07/08 05:26:07;;;;;;;15.68;6.45;;;18.10;99.90;;;;;;5005973;28;20437;-65
2023/07/08 05:28:33;;;;;;;13.52;6.25;;;18.50;99.90;;;;;;5005729;28;20045;-68
2023/07/08 05:31:02;;;;;;;10.50;6.20;;;18.70;99.90;;;;;;4988630;28;20080;-65
2023/07/08 05:33:30;;;;;;;13.23;6.97;;;18.70;99.90;;;;;;5005048;28;20455;-63
2023/07/08 05:35:56;;;;;;;11.27;6.47;;;18.90;99.90;;;;;;5004789;28;20038;-67
2023/07/08 05:38:22;;;;;;;9.18;5.47;;;18.90;99.90;;;;;;5006240;28;20382;-63
2023/07/08 05:40:53;;;;;;;12.60;6.43;;;18.80;99.90;;;;;;5005988;28;20731;-67
2023/07/08 05:43:19;;;;;;;13.57;6.30;;;18.90;99.90;;;;;;4989020;28;20606;-65
2023/07/08 05:45:45;;;;;;;15.30;6.68;;;18.90;99.90;;;;;;5005492;28;20498;-71
2023/07/08 05:48:11;;;;;;;10.35;6.85;;;18.80;99.90;;;;;;4988444;28;20046;-66
2023/07/08 05:50:37;;;;;;;11.35;5.53;;;18.80;99.90;;;;;;4988127;28;20337;-67
2023/07/08 05:53:03;;;;;;;13.90;5.88;;;18.80;99.90;;;;;;4989011;28;20045;-63
2023/07/08 05:55:28;;;;;;;15.40;6.45;;;18.90;99.90;;;;;;4988495;28;20104;-67
2023/07/08 05:57:54;;;;;;;11.75;5.72;;;18.90;99.90;;;;;;4988258;28;20120;-66
2023/07/08 06:00:20;;;;;;;10.35;5.28;;;18.90;99.90;;;;;;5006313;28;20485;-71
2023/07/08 06:02:45;;;;;;;12.50;5.63;;;18.90;99.90;;;;;;5005185;28;20034;-65
2023/07/08 06:05:11;;;;;;;10.75;5.72;;;19.10;99.90;;;;;;4986943;28;20490;-64
2023/07/08 06:07:37;;;;;;;9.50;5.05;;;19.20;99.90;;;;;;4988632;28;20096;-65
2023/07/08 06:10:03;;;;;;;12.50;5.18;;;19.40;99.90;;;;;;5001062;28;20042;-65
2023/07/08 06:12:30;;;;;;;13.10;5.53;;;19.50;99.90;;;;;;4969004;28;20585;-64
2023/07/08 06:14:56;;;;;;;12.07;5.03;;;19.60;99.90;;;;;;4988041;28;20485;-65
2023/07/08 06:17:21;;;;;;;9.98;5.35;;;19.90;99.90;;;;;;4988005;28;20042;-65
2023/07/08 06:19:47;;;;;;;10.90;5.45;;;20.10;99.90;;;;;;4988069;28;20038;-63
2023/07/08 06:22:13;;;;;;;10.00;5.47;;;20.10;99.90;;;;;;4987811;28;20462;-66
2023/07/08 06:24:38;;;;;;;8.07;4.70;;;20.10;99.90;;;;;;4988215;28;20085;-65
2023/07/08 06:27:05;;;;;;;12.00;5.57;;;20.10;99.90;;;;;;4986674;28;20042;-64
2023/07/08 06:29:30;;;;;;;9.57;4.80;;;20.10;99.90;;;;;;5005641;28;20037;-65
2023/07/08 06:31:56;;;;;;;10.98;4.68;;;20.10;99.90;;;;;;5005918;28;20042;-62
2023/07/08 06:34:23;;;;;;;9.35;4.78;;;20.10;99.90;;;;;;5005430;28;20125;-65
2023/07/08 06:36:49;;;;;;;9.23;4.75;;;20.10;99.90;;;;;;5003134;28;20126;-68
2023/07/08 06:39:16;;;;;;;9.35;4.90;;;20.20;99.90;;;;;;4986899;28;20061;-69
2023/07/08 06:41:42;;;;;;;12.20;4.95;;;20.30;99.90;;;;;;4984220;28;20155;-67
2023/07/08 06:44:08;;;;;;;12.27;4.93;;;20.30;99.90;;;;;;4998804;28;20042;-66
2023/07/08 06:46:34;;;;;;;10.35;4.97;;;20.40;99.90;;;;;;4987289;28;20681;-68
2023/07/08 06:48:59;;;;;;;9.98;4.85;;;20.50;99.90;;;;;;4987196;28;20056;-68
2023/07/08 06:51:25;;;;;;;10.48;4.95;;;20.60;99.90;;;;;;5004834;28;20042;-70
2023/07/08 06:53:51;;;;;;;8.57;4.75;;;20.60;99.90;;;;;;4987415;28;20096;-69
2023/07/08 06:56:17;;;;;;;9.60;4.95;;;20.80;99.90;;;;;;4987202;28;20049;-67
2023/07/08 06:58:43;;;;;;;12.45;5.15;;;20.80;99.90;;;;;;5005090;28;20064;-67
2023/07/08 07:01:08;;;;;;;9.52;4.47;;;21.00;99.90;;;;;;4987665;28;20045;-70
2023/07/08 07:03:34;;;;;;;10.93;4.85;;;21.10;99.90;;;;;;5003841;28;20707;-70
2023/07/08 07:05:59;;;;;;;7.70;4.70;;;21.10;99.90;;;;;;4986542;28;20576;-67
2023/07/08 07:08:25;;;;;;;11.23;4.30;;;21.20;99.90;;;;;;4987146;28;20052;-69
2023/07/08 07:10:51;;;;;;;8.00;4.88;;;21.30;99.70;;;;;;5003213;28;20042;-70
2023/07/08 07:13:16;;;;;;;10.43;4.90;;;21.40;99.60;;;;;;4986760;28;20045;-70
2023/07/08 07:15:42;;;;;;;15.07;4.90;;;21.50;99.30;;;;;;5005137;28;20041;-67
2023/07/08 07:18:07;;;;;;;9.50;4.30;;;21.50;99.40;;;;;;4971458;28;20042;-69
2023/07/08 07:20:36;;;;;;;10.15;4.80;;;21.60;99.60;;;;;;5004849;28;20045;-67
2023/07/08 07:23:01;;;;;;;10.73;4.55;;;21.70;99.60;;;;;;5005012;28;20049;-69
2023/07/08 07:25:27;;;;;;;10.20;4.55;;;21.90;99.30;;;;;;4986629;28;20371;-68
2023/07/08 07:27:52;;;;;;;11.68;4.97;;;21.90;99.10;;;;;;4987010;28;20046;-67
2023/07/08 07:30:18;;;;;;;10.15;4.70;;;22.10;99.30;;;;;;5003711;28;20045;-68
2023/07/08 07:32:44;;;;;;;9.20;4.80;;;22.00;99.20;;;;;;4987461;28;20582;-66
2023/07/08 07:35:14;;;;;;;9.52;4.28;;;22.00;99.50;;;;;;5003650;28;20077;-68
2023/07/08 07:37:41;;;;;;;9.70;4.70;;;22.10;99.50;;;;;;4967592;28;20513;-69
2023/07/08 07:40:13;;;;;;;12.02;4.88;;;22.20;99.00;;;;;;4969357;28;20497;-67
2023/07/08 07:42:40;;;;;;;9.88;4.68;;;22.30;99.50;;;;;;4981945;28;20050;-69
2023/07/08 07:45:07;;;;;;;11.65;4.93;;;22.30;99.50;;;;;;4999970;28;20046;-68
2023/07/08 07:47:33;;;;;;;11.95;4.60;;;22.30;99.00;;;;;;5003728;28;20033;-70
2023/07/08 07:49:59;;;;;;;9.98;4.80;;;22.30;99.20;;;;;;4986760;28;20132;-70
2023/07/08 07:52:25;;;;;;;8.13;4.45;;;22.40;98.80;;;;;;5004618;28;20048;-74
2023/07/08 07:54:54;;;;;;;9.15;4.88;;;22.40;98.60;;;;;;4987843;28;20655;-68
2023/07/08 07:57:21;;;;;;;13.15;5.18;;;22.30;98.80;;;;;;5003125;28;20046;-68
2023/07/08 07:59:48;;;;;;;11.05;5.13;;;22.40;99.10;;;;;;4986929;28;20049;-66
2023/07/08 08:02:17;;;;;;;11.23;4.75;;;22.40;99.70;;;;;;4979701;28;20100;-69
2023/07/08 08:04:42;;;;;;;11.40;4.75;;;22.60;99.80;;;;;;5001253;28;20513;-71
2023/07/08 08:07:09;;;;;;;10.70;4.57;;;22.70;98.80;;;;;;4985967;28;20053;-69
2023/07/08 08:09:35;;;;;;;12.13;4.93;;;22.80;98.90;;;;;;5000757;28;20539;-73
2023/07/08 08:12:02;;;;;;;17.88;4.78;;;22.80;98.50;;;;;;4996464;28;20066;-67
2023/07/08 08:14:28;;;;;;;10.73;4.50;;;22.90;98.70;;;;;;4980900;28;20038;-69
2023/07/08 08:16:54;;;;;;;13.68;4.78;;;22.90;98.50;;;;;;4962003;28;20532;-68
2023/07/08 08:19:19;;;;;;;10.38;4.40;;;23.00;98.50;;;;;;4997375;28;20069;-69
2023/07/08 08:21:45;;;;;;;15.27;4.80;;;23.00;97.80;;;;;;4993502;28;20247;-67
2023/07/08 08:24:10;;;;;;;11.20;4.80;;;23.10;98.00;;;;;;4979726;28;20049;-72
2023/07/08 08:26:36;;;;;;;11.57;4.03;;;23.20;98.50;;;;;;4995258;28;20042;-69
2023/07/08 08:29:02;;;;;;;12.13;4.68;;;23.40;98.20;;;;;;4981229;28;20034;-71
2023/07/08 08:31:28;;;;;;;13.35;4.85;;;23.40;97.50;;;;;;5002366;28;20069;-66
2023/07/08 08:33:54;;;;;;;8.68;4.47;;;23.60;97.90;;;;;;4951315;28;20070;-67
2023/07/08 08:36:20;;;;;;;11.00;4.35;;;23.80;97.80;;;;;;4993540;28;20120;-66
2023/07/08 08:38:46;;;;;;;8.52;4.13;;;23.90;97.50;;;;;;5000383;28;20132;-68
2023/07/08 08:41:14;;;;;;;10.95;3.85;;;23.90;97.80;;;;;;4997241;28;20045;-68
2023/07/08 08:43:42;;;;;;;10.98;4.18;;;24.00;97.20;;;;;;4975359;28;20026;-69
2023/07/08 08:46:15;;;;;;;10.88;4.68;;;24.10;97.10;;;;;;5004012;28;20082;-67
2023/07/08 08:48:58;;;;;;;10.97;4.17;;;24.20;96.60;;;;;;4982581;28;20084;-66
2023/07/08 08:51:26;;;;;;;10.32;3.60;;;24.20;96.70;;;;;;5001954;28;20255;-68
2023/07/08 08:53:55;;;;;;;9.55;3.75;;;24.20;96.10;;;;;;5002354;28;20030;-66
2023/07/08 08:56:27;;;;;;;9.65;4.28;;;24.30;96.20;;;;;;5001115;28;20062;-67
2023/07/08 08:59:10;;;;;;;11.90;3.80;;;24.40;96.10;;;;;;4989172;28;20038;-65
2023/07/08 09:01:36;;;;;;;9.90;3.72;;;24.50;95.60;;;;;;5005636;28;20452;-66
2023/07/08 09:04:27;;;;;;;7.47;3.40;;;24.50;95.80;;;;;;4989709;28;20054;-68
2023/07/08 09:07:00;;;;;;;7.93;3.42;;;24.80;95.80;;;;;;4981643;28;20100;-66
2023/07/08 09:09:35;;;;;;;9.70;3.40;;;24.90;96.10;;;;;;4994796;28;20048;-65
2023/07/08 09:12:31;;;;;;;12.38;4.10;;;25.10;95.40;;;;;;4994406;28;20041;-66
2023/07/08 09:14:57;;;;;;;9.20;3.40;;;25.20;94.90;;;;;;4995094;28;20782;-69
2023/07/08 09:17:34;;;;;;;9.52;3.78;;;25.30;95.50;;;;;;4978407;28;20042;-68
2023/07/08 09:20:03;;;;;;;13.65;3.78;;;25.30;94.40;;;;;;4974297;28;20412;-68
2023/07/08 09:22:34;;;;;;;11.98;4.22;;;25.30;94.80;;;;;;4956628;28;20054;-68
2023/07/08 09:25:11;;;;;;;10.30;3.67;;;25.30;94.00;;;;;;4972885;28;20485;-68
2023/07/08 09:27:37;;;;;;;6.45;3.67;;;25.40;94.30;;;;;;5004336;28;20492;-67
2023/07/08 09:30:03;;;;;;;8.25;3.75;;;25.50;94.30;;;;;;4979696;28;20065;-66
2023/07/08 09:32:28;;;;;;;7.57;3.53;;;25.60;95.00;;;;;;4975338;28;20531;-67
2023/07/08 09:35:01;;;;;;;7.57;3.67;;;25.80;95.40;;;;;;4975669;28;20042;-66
2023/07/08 09:37:32;;;;;;;8.30;3.47;;;25.90;94.60;;;;;;5004018;28;20034;-67
2023/07/08 09:40:14;;;;;;;7.72;3.63;;;26.00;94.20;;;;;;4988554;28;20163;-66
2023/07/08 09:42:42;;;;;;;7.03;3.38;;;26.10;93.90;;;;;;5005109;28;20034;-66
2023/07/08 09:45:20;;;;;;;6.82;3.30;;;26.20;95.30;;;;;;5006841;28;20045;-69
2023/07/08 09:47:46;;;;;;;8.98;3.38;;;26.30;94.80;;;;;;5006522;28;20050;-68
2023/07/08 09:50:23;;;;;;;6.55;3.30;;;26.40;93.80;;;;;;4987880;28;20092;-67
2023/07/08 09:52:52;;;;;;;7.68;3.17;;;26.30;93.10;;;;;;4969249;28;20233;-69
2023/07/08 09:55:18;;;;;;;8.07;3.78;;;26.40;94.50;;;;;;4952885;28;20038;-67
2023/07/08 09:57:46;;;;;;;8.27;3.60;;;26.50;94.20;;;;;;4986939;28;20046;-67
2023/07/08 10:00:18;;;;;;;12.82;4.07;;;26.60;93.80;;;;;;4988602;28;20056;-68
2023/07/08 10:02:49;;;;;;;9.35;3.17;;;26.60;94.50;;;;;;4971694;28;20092;-67
2023/07/08 10:05:42;;;;;;;6.38;3.15;;;26.60;93.20;;;;;;4987761;28;21961;-68
2023/07/08 10:08:19;;;;;;;7.70;3.33;;;26.70;94.70;;;;;;4966074;28;20057;-69
2023/07/08 10:10:49;;;;;;;10.07;3.78;;;26.70;93.70;;;;;;5001304;28;20084;-69
2023/07/08 10:13:29;;;;;;;9.68;3.15;;;26.80;93.90;;;;;;4971594;28;20049;-68
2023/07/08 10:16:00;;;;;;;7.68;3.55;;;27.00;94.20;;;;;;4988651;28;20060;-68
2023/07/08 10:18:29;;;;;;;6.88;3.10;;;27.10;93.90;;;;;;4971561;28;20099;-65
2023/07/08 10:21:06;;;;;;;9.23;4.32;;;27.20;93.90;;;;;;4987808;28;20559;-67
2023/07/08 10:23:43;;;;;;;7.75;3.17;;;27.30;92.80;;;;;;4987382;28;20038;-65
2023/07/08 10:26:15;;;;;;;12.25;4.15;;;27.30;92.90;;;;;;4994167;28;20764;-66
2023/07/08 10:28:55;;;;;;;7.45;3.85;;;27.20;92.20;;;;;;4988139;28;20121;-70
2023/07/08 10:31:26;;;;;;;10.95;3.50;;;27.20;92.50;;;;;;4995446;28;20117;-66
2023/07/08 10:34:13;;;;;;;7.72;3.90;;;27.20;91.90;;;;;;4972917;28;20095;-65
2023/07/08 10:36:59;;;;;;;7.05;3.70;;;27.20;91.70;;;;;;4986630;28;20073;-68
2023/07/08 10:39:50;;;;;;;12.38;3.47;;;27.40;92.70;;;;;;4990983;28;20062;-67
2023/07/08 10:42:18;;;;;;;8.85;3.42;;;27.50;90.00;;;;;;4976831;28;20061;-68
2023/07/08 10:44:59;;;;;;;7.25;4.03;;;27.50;91.10;;;;;;4983461;28;20556;-67
2023/07/08 10:47:34;;;;;;;9.68;3.33;;;27.70;92.60;;;;;;4982973;28;20042;-69
2023/07/08 10:50:16;;;;;;;8.85;3.65;;;27.80;92.20;;;;;;4984637;28;20069;-67
2023/07/08 10:52:53;;;;;;;10.05;3.53;;;27.80;90.70;;;;;;4965095;28;20041;-68
2023/07/08 10:55:50;;;;;;;11.38;3.55;;;27.90;91.70;;;;;;4966483;28;20053;-65
2023/07/08 10:58:44;;;;;;;9.05;3.83;;;27.90;92.40;;;;;;4937120;28;20125;-66
2023/07/08 11:01:33;;;;;;;12.88;4.05;;;28.00;91.50;;;;;;4968019;28;20686;-68
2023/07/08 11:04:26;;;;;;;8.38;4.10;;;28.00;93.00;;;;;;4967401;28;20050;-70
2023/07/08 11:06:57;;;;;;;6.93;3.53;;;28.10;91.40;;;;;;4950331;28;20046;-70
2023/07/08 11:09:44;;;;;;;7.53;4.03;;;28.10;91.20;;;;;;4983878;28;20050;-70
2023/07/08 11:12:38;;;;;;;9.07;3.97;;;28.10;89.60;;;;;;4951162;28;20044;-70
2023/07/08 11:15:09;;;;;;;10.43;3.63;;;28.10;90.10;;;;;;4967415;28;20052;-67
2023/07/08 11:18:02;;;;;;;8.27;3.90;;;28.20;91.30;;;;;;4985559;28;20379;-74
2023/07/08 11:21:05;;;;;;;6.80;3.70;;;28.20;90.20;;;;;;4956392;28;20054;-68
2023/07/08 11:23:38;;;;;;;7.28;3.50;;;28.20;90.60;;;;;;4967789;28;20121;-69
2023/07/08 11:26:26;;;;;;;7.95;3.42;;;28.30;89.60;;;;;;4984771;28;20057;-68
2023/07/08 11:28:56;;;;;;;8.88;4.03;;;28.40;90.60;;;;;;4964602;28;20121;-68
2023/07/08 11:31:22;;;;;;;8.75;3.67;;;28.50;91.20;;;;;;4950812;28;20046;-68
2023/07/08 11:33:49;;;;;;;11.82;3.85;;;28.60;91.10;;;;;;4982858;28;20089;-66
2023/07/08 11:36:16;;;;;;;9.60;3.47;;;28.60;89.80;;;;;;4983473;28;20049;-67
2023/07/08 11:38:50;;;;;;;7.32;3.60;;;28.60;88.90;;;;;;4968312;28;20046;-68
2023/07/08 11:41:19;;;;;;;8.43;3.88;;;28.60;84.40;;;;;;4984481;28;20042;-69
2023/07/08 11:43:49;;;;;;;6.85;3.33;;;28.60;87.10;;;;;;4986277;28;20099;-67
2023/07/08 11:46:28;;;;;;;8.93;4.22;;;28.70;82.80;;;;;;4986225;28;20092;-68
2023/07/08 11:48:56;;;;;;;10.05;3.70;;;28.80;85.40;;;;;;4977475;28;20058;-65
2023/07/08 11:51:41;;;;;;;7.65;3.58;;;28.80;83.30;;;;;;4998318;28;20858;-65
2023/07/08 11:54:14;;;;;;;8.48;4.30;;;28.80;80.70;;;;;;4995685;28;20061;-66
2023/07/08 11:57:10;;;;;;;7.78;3.42;;;28.90;86.60;;;;;;4985687;28;20691;-67
2023/07/08 11:59:41;;;;;;;6.55;3.80;;;29.00;89.00;;;;;;4985411;28;20120;-68
2023/07/08 12:02:15;;;;;;;9.50;3.92;;;29.20;82.10;;;;;;5004188;28;20046;-68
2023/07/08 12:05:11;;;;;;;7.95;3.75;;;29.50;81.40;;;;;;4956593;28;20057;-69
2023/07/08 12:07:42;;;;;;;7.60;3.75;;;29.80;82.70;;;;;;4982823;28;20104;-65
2023/07/08 12:10:18;;;;;;;8.75;3.70;;;30.00;80.30;;;;;;4993629;28;20100;-69
2023/07/08 12:12:46;;;;;;;11.23;3.90;;;30.00;74.80;;;;;;4966832;28;20251;-68
2023/07/08 12:15:22;;;;;;;7.82;3.50;;;30.00;78.00;;;;;;4980654;28;20490;-67
2023/07/08 12:17:50;;;;;;;11.57;3.58;;;30.00;79.00;;;;;;4983184;28;20045;-70
2023/07/08 12:20:23;;;;;;;7.50;3.47;;;30.00;79.50;;;;;;4999020;28;20109;-67
2023/07/08 12:22:49;;;;;;;;;;;29.90;77.70;;;;;;4993909;28;20054;-69
2023/07/08 12:25:17;;;;;;;8.23;3.88;;;29.80;75.70;;;;;;4985539;28;19973;-66
2023/07/08 12:27:46;;;;;;;6.60;3.70;;;29.70;75.00;;;;;;4964923;28;20099;-65
2023/07/08 12:30:13;;;;;;;7.75;4.40;;;29.70;73.70;;;;;;5000219;28;20389;-68
2023/07/08 12:32:40;;;;;;;11.93;3.97;;;29.70;75.70;;;;;;4970400;28;20323;-65
2023/07/08 12:35:25;;;;;;;7.50;3.72;;;29.70;76.20;;;;;;5001177;28;20096;-68
2023/07/08 12:37:52;;;;;;;7.63;4.00;;;29.70;75.60;;;;;;4984073;28;20453;-71
2023/07/08 12:40:21;;;;;;;9.10;3.90;;;29.70;73.50;;;;;;5001736;28;20190;-65
2023/07/08 12:42:47;;;;;;;8.73;3.88;;;29.70;74.80;;;;;;5000327;28;20034;-66
2023/07/08 12:45:21;;;;;;;8.63;4.05;;;29.70;76.10;;;;;;4983666;28;20734;-69
2023/07/08 12:47:48;;;;;;;8.77;3.80;;;29.80;73.60;;;;;;5000907;28;20374;-70
2023/07/08 12:50:14;;;;;;;8.73;4.15;;;29.70;73.10;;;;;;5003139;28;20045;-67
2023/07/08 12:52:42;;;;;;;8.13;4.13;;;29.80;72.00;;;;;;4963264;28;20026;-68